createdAt,value
2024-02-12T00:03:50.865Z,68.7
2024-02-12T00:09:27.353Z,69
2024-02-12T00:15:04.091Z,69.4
2024-02-12T00:20:40.557Z,69.5
2024-02-12T00:26:17.353Z,69.2
2024-02-12T00:31:53.087Z,68.9
2024-02-12T00:37:28.087Z,66.8
2024-02-12T00:43:04.625Z,64
2024-02-12T00:48:40.629Z,64.1
2024-02-12T00:54:18.080Z,67.2
2024-02-12T00:59:55.164Z,67.8
2024-02-12T01:05:30.874Z,68.6
2024-02-12T01:11:06.651Z,69.1
2024-02-12T01:16:42.407Z,69.6
2024-02-12T01:22:17.728Z,70
2024-02-12T01:27:53.254Z,69.1
2024-02-12T01:33:28.859Z,69.3
2024-02-12T01:39:04.693Z,69.4
2024-02-12T01:44:40.353Z,69.8
2024-02-12T01:50:16.130Z,69.9
2024-02-12T01:55:53.104Z,70.9
2024-02-12T02:01:29.000Z,69.6
2024-02-12T02:07:05.660Z,67.4
2024-02-12T02:12:40.868Z,66.7
2024-02-12T02:18:16.558Z,68.2
2024-02-12T02:23:53.301Z,67.5
2024-02-12T02:29:28.709Z,69.5
2024-02-12T02:35:05.535Z,71
2024-02-12T02:40:41.586Z,71.9
2024-02-12T02:46:17.491Z,72.3
2024-02-12T02:51:53.115Z,72.1
2024-02-12T02:57:29.781Z,72.7
2024-02-12T03:03:06.404Z,72.8
2024-02-12T03:08:42.118Z,72.8
2024-02-12T03:14:18.562Z,73.2
2024-02-12T03:19:54.045Z,73.5
2024-02-12T03:25:29.913Z,73.6
2024-02-12T03:31:05.631Z,73.6
2024-02-12T03:36:41.693Z,73.5
2024-02-12T03:42:17.577Z,72.8
2024-02-12T03:47:53.755Z,72.5
2024-02-12T03:53:31.435Z,72.2
2024-02-12T03:59:08.494Z,71.6
2024-02-12T04:04:44.484Z,71.8
2024-02-12T04:10:20.740Z,72.2
2024-02-12T04:15:55.744Z,72.2
2024-02-12T04:21:31.842Z,71.9
2024-02-12T04:27:08.043Z,72.1
2024-02-12T04:32:44.908Z,71.4
2024-02-12T04:38:21.549Z,71
2024-02-12T04:43:57.627Z,71.3
2024-02-12T04:49:34.061Z,68.9
2024-02-12T04:55:10.180Z,68.6
2024-02-12T05:00:45.757Z,69
2024-02-12T05:06:21.362Z,67.9
2024-02-12T05:11:57.141Z,68.4
2024-02-12T05:17:32.410Z,69.1
2024-02-12T05:23:09.782Z,69.7
2024-02-12T05:28:46.445Z,70.9
2024-02-12T05:34:21.971Z,71.3
2024-02-12T05:39:58.077Z,71.8
2024-02-12T05:45:34.115Z,72.1
2024-02-12T05:51:09.457Z,72.1
2024-02-12T05:56:49.558Z,72.2
2024-02-12T06:02:25.761Z,72.1
2024-02-12T06:08:02.624Z,74.1
2024-02-12T06:13:39.976Z,76.2
2024-02-12T06:19:16.803Z,78
2024-02-12T06:24:53.366Z,79.8
2024-02-12T06:30:28.544Z,78.3
2024-02-12T06:36:04.291Z,78.9
2024-02-12T06:41:39.862Z,78.7
2024-02-12T06:47:15.387Z,75.7
2024-02-12T06:52:52.049Z,74.7
2024-02-12T06:58:27.094Z,75.7
2024-02-12T07:04:03.250Z,78.9
2024-02-12T07:09:39.536Z,79.8
2024-02-12T07:15:14.500Z,78.5
2024-02-12T07:20:49.808Z,76.8
2024-02-12T07:26:26.400Z,78.3
2024-02-12T07:32:02.457Z,75.8
2024-02-12T07:37:38.679Z,73.5
2024-02-12T07:43:15.028Z,74
2024-02-12T07:48:50.564Z,73.5
2024-02-12T07:54:27.622Z,74.1
2024-02-12T08:00:05.107Z,72.5
2024-02-12T08:05:43.488Z,73.6
2024-02-12T08:11:20.019Z,76.1
2024-02-12T08:16:56.651Z,79
2024-02-12T08:22:32.865Z,80.3
2024-02-12T08:28:07.753Z,78.7
2024-02-12T08:33:43.814Z,76.6
2024-02-12T08:39:23.603Z,78
2024-02-12T08:45:02.517Z,79.8
2024-02-12T08:50:38.503Z,80.5
2024-02-12T08:56:14.707Z,79.9
2024-02-12T09:01:52.604Z,77.2
2024-02-12T09:07:28.367Z,72.7
2024-02-12T09:13:06.625Z,71.5
2024-02-12T09:18:42.984Z,69.5
2024-02-12T09:24:19.371Z,74.6
2024-02-12T09:29:54.665Z,73.4
2024-02-12T09:35:30.941Z,66.5
2024-02-12T09:41:07.332Z,62.7
2024-02-12T09:46:44.023Z,62.3
2024-02-12T09:52:21.275Z,64.1
2024-02-12T09:57:58.004Z,66.2
2024-02-12T10:03:33.197Z,65.7
2024-02-12T10:09:10.500Z,66.6
2024-02-12T10:14:46.591Z,64.3
2024-02-12T10:20:24.141Z,61.8
2024-02-12T10:26:01.234Z,62.7
2024-02-12T10:31:41.147Z,61.3
2024-02-12T10:37:19.860Z,61.2
2024-02-12T10:42:55.254Z,58.8
2024-02-12T10:48:32.126Z,59.5
2024-02-12T10:54:08.824Z,60.9
2024-02-12T10:59:45.285Z,59.5
2024-02-12T11:05:21.178Z,60.2
2024-02-12T11:10:57.855Z,59.2
2024-02-12T11:16:34.022Z,62.1
2024-02-12T11:22:12.343Z,61.4
2024-02-12T11:27:47.626Z,63.4
2024-02-12T11:33:22.908Z,62.2
2024-02-12T11:38:59.032Z,61.3
2024-02-12T11:44:34.669Z,62.6
2024-02-12T11:50:14.268Z,64.7
2024-02-12T11:55:50.494Z,68.2
2024-02-12T12:01:25.765Z,68.1
2024-02-12T12:07:01.173Z,66.6
2024-02-12T12:12:44.178Z,66.3
2024-02-12T12:18:37.291Z,65.4
2024-02-12T12:24:14.801Z,67.4
2024-02-12T12:29:53.129Z,66.8
2024-02-12T12:35:32.036Z,65.9
2024-02-12T12:41:08.191Z,66.2
2024-02-12T12:46:44.424Z,66.2
2024-02-12T12:52:21.110Z,67.3
2024-02-12T12:57:56.176Z,68.1
2024-02-12T13:03:32.693Z,68.2
2024-02-12T13:09:09.366Z,69.8
2024-02-12T13:14:45.884Z,76.7
2024-02-12T13:20:24.343Z,79
2024-02-12T13:26:05.078Z,82.4
2024-02-12T13:31:42.321Z,83.8
2024-02-12T13:37:18.995Z,82.5
2024-02-12T13:42:55.073Z,80.9
2024-02-12T13:48:30.935Z,80.6
2024-02-12T13:54:07.548Z,77.7
2024-02-12T13:59:42.728Z,76.5
2024-02-12T14:05:19.978Z,76.6
2024-02-12T14:10:58.873Z,78.3
2024-02-12T14:16:35.462Z,77.2
2024-02-12T14:22:11.016Z,75.2
2024-02-12T14:27:46.525Z,74.8
2024-02-12T14:33:23.213Z,74.4
2024-02-12T14:39:00.416Z,73.3
2024-02-12T14:44:37.240Z,74.6
2024-02-12T14:50:16.092Z,76.1
2024-02-12T14:55:52.382Z,75.1
2024-02-12T15:01:28.571Z,76.6
2024-02-12T15:07:04.833Z,76.9
2024-02-12T15:12:40.671Z,76.9
2024-02-12T15:18:16.827Z,78.5
2024-02-12T15:23:55.317Z,79
2024-02-12T15:29:30.849Z,78.9
2024-02-12T15:35:06.962Z,79.6
2024-02-12T15:40:43.285Z,79.7
2024-02-12T15:46:19.782Z,77.2
2024-02-12T15:51:55.220Z,77.3
2024-02-12T15:57:30.478Z,77.6
2024-02-12T16:03:06.289Z,77.9
2024-02-12T16:08:42.327Z,78.3
2024-02-12T16:14:18.969Z,79.2
2024-02-12T16:19:55.182Z,83.7
2024-02-12T16:25:31.547Z,83.1
2024-02-12T16:31:07.615Z,81.8
2024-02-12T16:36:42.881Z,81.9
2024-02-12T16:42:18.342Z,82.5
2024-02-12T16:47:54.153Z,82.2
2024-02-12T16:53:31.170Z,81.2
2024-02-12T16:59:08.155Z,82.4
2024-02-12T17:04:43.661Z,82.9
2024-02-12T17:10:18.886Z,84.3
2024-02-12T17:15:54.446Z,82.4
2024-02-12T17:21:29.728Z,81.2
2024-02-12T17:27:05.280Z,82.3
2024-02-12T17:32:42.023Z,81.8
2024-02-12T17:38:20.208Z,81.6
2024-02-12T17:43:56.592Z,82.7
2024-02-12T17:49:33.313Z,82.3
2024-02-12T17:55:09.555Z,82.1
2024-02-12T18:00:45.244Z,82.8
2024-02-12T18:06:23.663Z,81.4
2024-02-12T18:12:00.995Z,81.6
2024-02-12T18:17:36.866Z,80.9
2024-02-12T18:23:14.111Z,81.9
2024-02-12T18:28:49.924Z,81
2024-02-12T18:34:25.610Z,79.8
2024-02-12T18:40:02.040Z,78.8
2024-02-12T18:45:38.799Z,78.6
2024-02-12T18:51:15.504Z,78.3
2024-02-12T18:56:51.631Z,78.4
2024-02-12T19:02:27.685Z,78
2024-02-12T19:08:03.421Z,78.5
2024-02-12T19:13:39.948Z,78.5
2024-02-12T19:19:16.427Z,77.7
2024-02-12T19:24:53.390Z,78.3
2024-02-12T19:30:29.047Z,78.5
2024-02-12T19:36:04.583Z,79.1
2024-02-12T19:41:40.105Z,79
2024-02-12T19:47:17.149Z,78.6
2024-02-12T19:52:52.920Z,78.4
2024-02-12T19:58:28.638Z,78.1
2024-02-12T20:04:05.010Z,77.7
2024-02-12T20:09:41.189Z,77.3
2024-02-12T20:15:16.366Z,77.1
2024-02-12T20:20:52.486Z,76.7
2024-02-12T20:26:29.470Z,76.5
2024-02-12T20:32:05.868Z,76.3
2024-02-12T20:37:42.196Z,76
2024-02-12T20:43:17.307Z,76
2024-02-12T20:48:52.997Z,75.6
2024-02-12T20:54:32.623Z,75.6
2024-02-12T21:00:07.612Z,76.1
2024-02-12T21:05:43.478Z,76.8
2024-02-12T21:11:20.351Z,77.3
2024-02-12T21:16:56.971Z,77.8
2024-02-12T21:22:33.044Z,78.2
2024-02-12T21:28:09.539Z,78.5
2024-02-12T21:33:45.683Z,78.7
2024-02-12T21:39:22.195Z,78.9
2024-02-12T21:44:59.674Z,79
2024-02-12T21:50:37.623Z,79.2
2024-02-12T21:56:13.695Z,79.4
2024-02-12T22:01:49.681Z,79.1
2024-02-12T22:07:25.273Z,79.1
2024-02-12T22:13:00.460Z,78.4
2024-02-12T22:18:36.892Z,77.7
2024-02-12T22:24:13.190Z,77.5
2024-02-12T22:29:48.837Z,77.8
2024-02-12T22:35:25.483Z,78
2024-02-12T22:41:01.364Z,78.8
2024-02-12T22:46:37.342Z,78.9
2024-02-12T22:52:13.027Z,79.5
2024-02-12T22:57:48.882Z,78.9
2024-02-12T23:03:24.399Z,79.2
2024-02-12T23:09:00.739Z,78.5
2024-02-12T23:14:36.357Z,78.9
2024-02-12T23:20:13.142Z,79.3
2024-02-12T23:25:50.241Z,79.6
2024-02-12T23:31:25.633Z,79.5
2024-02-12T23:37:01.186Z,78.8
2024-02-12T23:42:42.097Z,79
2024-02-12T23:48:18.770Z,79.3
2024-02-12T23:53:56.124Z,79.2
2024-02-12T23:59:31.871Z,78.8
